sensor_id;sensor_type;location;lat;lon;timestamp;temperature;humidity
34574;DHT22;20809;49.594;8.734;2023-08-08T00:02:09;12.20;99.90
34574;DHT22;20809;49.594;8.734;2023-08-08T00:05:13;12.30;99.90
34574;DHT22;20809;49.594;8.734;2023-08-08T00:08:15;12.20;99.90
34574;DHT22;20809;49.594;8.734;2023-08-08T00:11:18;12.30;99.90
34574;DHT22;20809;49.594;8.734;2023-08-08T00:14:20;12.20;99.90
34574;DHT22;20809;49.594;8.734;2023-08-08T00:17:22;12.30;99.90
34574;DHT22;20809;49.594;8.734;2023-08-08T00:20:25;12.30;99.90
34574;DHT22;20809;49.594;8.734;2023-08-08T00:23:30;12.30;99.90
34574;DHT22;20809;49.594;8.734;2023-08-08T00:26:32;12.30;99.90
34574;DHT22;20809;49.594;8.734;2023-08-08T00:29:34;12.10;99.90
34574;DHT22;20809;49.594;8.734;2023-08-08T00:32:36;12.10;99.90
34574;DHT22;20809;49.594;8.734;2023-08-08T00:35:36;11.90;99.90
34574;DHT22;20809;49.594;8.734;2023-08-08T00:38:38;11.90;99.90
34574;DHT22;20809;49.594;8.734;2023-08-08T00:41:40;11.80;99.90
34574;DHT22;20809;49.594;8.734;2023-08-08T00:44:42;11.70;99.90
34574;DHT22;20809;49.594;8.734;2023-08-08T00:47:43;11.60;99.90
34574;DHT22;20809;49.594;8.734;2023-08-08T00:50:46;11.60;99.90
34574;DHT22;20809;49.594;8.734;2023-08-08T00:53:50;11.70;99.90
34574;DHT22;20809;49.594;8.734;2023-08-08T00:59:16;11.60;99.90
34574;DHT22;20809;49.594;8.734;2023-08-08T01:02:20;11.50;99.90
34574;DHT22;20809;49.594;8.734;2023-08-08T01:05:25;11.40;99.90
34574;DHT22;20809;49.594;8.734;2023-08-08T01:08:39;11.30;99.90
34574;DHT22;20809;49.594;8.734;2023-08-08T01:11:43;11.40;99.90
34574;DHT22;20809;49.594;8.734;2023-08-08T01:14:49;11.30;99.90
34574;DHT22;20809;49.594;8.734;2023-08-08T01:17:52;11.30;99.90
34574;DHT22;20809;49.594;8.734;2023-08-08T01:20:55;11.20;99.90
34574;DHT22;20809;49.594;8.734;2023-08-08T01:24:11;11.20;99.90
34574;DHT22;20809;49.594;8.734;2023-08-08T01:27:12;11.10;99.90
34574;DHT22;20809;49.594;8.734;2023-08-08T01:30:14;11.10;99.90
34574;DHT22;20809;49.594;8.734;2023-08-08T01:33:16;11.00;99.90
34574;DHT22;20809;49.594;8.734;2023-08-08T01:36:30;10.90;99.90
34574;DHT22;20809;49.594;8.734;2023-08-08T01:39:38;11.00;99.90
34574;DHT22;20809;49.594;8.734;2023-08-08T01:42:46;11.00;99.90
34574;DHT22;20809;49.594;8.734;2023-08-08T01:45:48;11.00;99.90
34574;DHT22;20809;49.594;8.734;2023-08-08T01:48:50;11.00;99.90
34574;DHT22;20809;49.594;8.734;2023-08-08T01:51:52;11.00;99.90
34574;DHT22;20809;49.594;8.734;2023-08-08T01:54:54;10.90;99.90
34574;DHT22;20809;49.594;8.734;2023-08-08T01:57:56;10.90;99.90
34574;DHT22;20809;49.594;8.734;2023-08-08T02:00:58;10.70;99.90
34574;DHT22;20809;49.594;8.734;2023-08-08T02:03:59;10.70;99.90
34574;DHT22;20809;49.594;8.734;2023-08-08T02:07:01;10.70;99.90
34574;DHT22;20809;49.594;8.734;2023-08-08T02:10:03;10.70;99.90
34574;DHT22;20809;49.594;8.734;2023-08-08T02:13:05;10.70;99.90
34574;DHT22;20809;49.594;8.734;2023-08-08T02:16:09;10.70;99.90
34574;DHT22;20809;49.594;8.734;2023-08-08T02:19:10;10.80;99.90
34574;DHT22;20809;49.594;8.734;2023-08-08T02:22:12;10.90;99.90
34574;DHT22;20809;49.594;8.734;2023-08-08T02:25:14;10.80;99.90
34574;DHT22;20809;49.594;8.734;2023-08-08T02:28:16;10.90;99.90
34574;DHT22;20809;49.594;8.734;2023-08-08T02:31:18;10.80;99.90
34574;DHT22;20809;49.594;8.734;2023-08-08T02:34:22;10.70;99.90
34574;DHT22;20809;49.594;8.734;2023-08-08T02:37:26;10.70;99.90
34574;DHT22;20809;49.594;8.734;2023-08-08T02:40:28;10.80;99.90
34574;DHT22;20809;49.594;8.734;2023-08-08T02:43:29;10.60;99.90
34574;DHT22;20809;49.594;8.734;2023-08-08T02:46:32;10.60;99.90
34574;DHT22;20809;49.594;8.734;2023-08-08T02:49:33;10.50;99.90
34574;DHT22;20809;49.594;8.734;2023-08-08T02:52:34;10.50;99.90
34574;DHT22;20809;49.594;8.734;2023-08-08T02:55:36;10.40;99.90
34574;DHT22;20809;49.594;8.734;2023-08-08T02:58:38;10.30;99.90
34574;DHT22;20809;49.594;8.734;2023-08-08T03:01:39;10.40;99.90
34574;DHT22;20809;49.594;8.734;2023-08-08T03:04:41;10.30;99.90
34574;DHT22;20809;49.594;8.734;2023-08-08T03:07:42;10.30;99.90
34574;DHT22;20809;49.594;8.734;2023-08-08T03:10:44;10.20;99.90
34574;DHT22;20809;49.594;8.734;2023-08-08T03:13:45;10.20;99.90
34574;DHT22;20809;49.594;8.734;2023-08-08T03:16:47;10.20;99.90
34574;DHT22;20809;49.594;8.734;2023-08-08T03:19:48;10.20;99.90
34574;DHT22;20809;49.594;8.734;2023-08-08T03:22:50;10.10;99.90
34574;DHT22;20809;49.594;8.734;2023-08-08T03:25:51;10.20;99.90
34574;DHT22;20809;49.594;8.734;2023-08-08T03:28:54;10.10;99.90
34574;DHT22;20809;49.594;8.734;2023-08-08T03:31:55;10.10;99.90
34574;DHT22;20809;49.594;8.734;2023-08-08T03:34:57;10.10;99.90
34574;DHT22;20809;49.594;8.734;2023-08-08T03:37:58;10.10;99.90
34574;DHT22;20809;49.594;8.734;2023-08-08T03:40:59;10.10;99.90
34574;DHT22;20809;49.594;8.734;2023-08-08T03:44:01;10.00;99.90
34574;DHT22;20809;49.594;8.734;2023-08-08T03:47:03;10.00;99.90
34574;DHT22;20809;49.594;8.734;2023-08-08T03:50:05;10.00;99.90
34574;DHT22;20809;49.594;8.734;2023-08-08T03:53:06;10.00;99.90
34574;DHT22;20809;49.594;8.734;2023-08-08T03:56:07;10.10;99.90
34574;DHT22;20809;49.594;8.734;2023-08-08T03:59:09;10.00;99.90
34574;DHT22;20809;49.594;8.734;2023-08-08T04:02:10;9.90;99.90
34574;DHT22;20809;49.594;8.734;2023-08-08T04:05:11;9.90;99.90
34574;DHT22;20809;49.594;8.734;2023-08-08T04:08:15;9.90;99.90
34574;DHT22;20809;49.594;8.734;2023-08-08T04:11:19;9.90;99.90
34574;DHT22;20809;49.594;8.734;2023-08-08T04:14:20;9.80;99.90
34574;DHT22;20809;49.594;8.734;2023-08-08T04:17:21;9.70;99.90
34574;DHT22;20809;49.594;8.734;2023-08-08T04:20:22;9.80;99.90
34574;DHT22;20809;49.594;8.734;2023-08-08T04:23:23;9.90;99.90
34574;DHT22;20809;49.594;8.734;2023-08-08T04:26:26;9.80;99.90
34574;DHT22;20809;49.594;8.734;2023-08-08T04:29:27;9.70;99.90
34574;DHT22;20809;49.594;8.734;2023-08-08T04:32:28;9.70;99.90
34574;DHT22;20809;49.594;8.734;2023-08-08T04:35:28;9.90;99.90
34574;DHT22;20809;49.594;8.734;2023-08-08T04:38:29;9.80;99.90
34574;DHT22;20809;49.594;8.734;2023-08-08T04:41:29;9.90;99.90
34574;DHT22;20809;49.594;8.734;2023-08-08T04:44:30;9.90;99.90
34574;DHT22;20809;49.594;8.734;2023-08-08T04:47:31;10.00;99.90
34574;DHT22;20809;49.594;8.734;2023-08-08T04:50:31;10.00;99.90
34574;DHT22;20809;49.594;8.734;2023-08-08T04:53:32;10.10;99.90
34574;DHT22;20809;49.594;8.734;2023-08-08T04:56:35;10.00;99.90
34574;DHT22;20809;49.594;8.734;2023-08-08T04:59:38;10.10;99.90
34574;DHT22;20809;49.594;8.734;2023-08-08T05:02:39;10.20;99.90
34574;DHT22;20809;49.594;8.734;2023-08-08T05:05:41;10.10;99.90
34574;DHT22;20809;49.594;8.734;2023-08-08T05:08:42;10.10;99.90
34574;DHT22;20809;49.594;8.734;2023-08-08T05:11:42;10.10;99.90
34574;DHT22;20809;49.594;8.734;2023-08-08T05:14:43;10.20;99.90
34574;DHT22;20809;49.594;8.734;2023-08-08T05:17:44;10.40;99.90
34574;DHT22;20809;49.594;8.734;2023-08-08T05:20:44;10.60;99.90
34574;DHT22;20809;49.594;8.734;2023-08-08T05:23:45;10.60;99.90
34574;DHT22;20809;49.594;8.734;2023-08-08T05:26:46;10.90;99.90
34574;DHT22;20809;49.594;8.734;2023-08-08T05:29:46;11.10;99.90
34574;DHT22;20809;49.594;8.734;2023-08-08T05:32:47;11.30;99.90
34574;DHT22;20809;49.594;8.734;2023-08-08T05:35:48;11.60;99.90
34574;DHT22;20809;49.594;8.734;2023-08-08T05:38:52;11.90;99.90
34574;DHT22;20809;49.594;8.734;2023-08-08T05:41:52;12.30;99.90
34574;DHT22;20809;49.594;8.734;2023-08-08T05:44:53;13.10;99.90
34574;DHT22;20809;49.594;8.734;2023-08-08T05:47:54;13.90;99.90
34574;DHT22;20809;49.594;8.734;2023-08-08T05:50:56;15.10;99.90
34574;DHT22;20809;49.594;8.734;2023-08-08T05:53:59;17.20;99.90
34574;DHT22;20809;49.594;8.734;2023-08-08T05:56:59;19.50;99.90
34574;DHT22;20809;49.594;8.734;2023-08-08T06:00:00;21.70;99.90
34574;DHT22;20809;49.594;8.734;2023-08-08T06:03:01;23.20;99.90
34574;DHT22;20809;49.594;8.734;2023-08-08T06:06:02;24.00;99.90
34574;DHT22;20809;49.594;8.734;2023-08-08T06:09:02;24.30;99.90
34574;DHT22;20809;49.594;8.734;2023-08-08T06:12:03;23.90;99.90
34574;DHT22;20809;49.594;8.734;2023-08-08T06:15:04;23.30;99.90
34574;DHT22;20809;49.594;8.734;2023-08-08T06:18:05;22.90;99.90
34574;DHT22;20809;49.594;8.734;2023-08-08T06:21:05;22.70;99.90
34574;DHT22;20809;49.594;8.734;2023-08-08T06:24:06;22.30;99.90
34574;DHT22;20809;49.594;8.734;2023-08-08T06:27:07;21.80;99.90
34574;DHT22;20809;49.594;8.734;2023-08-08T06:30:26;21.20;99.90
34574;DHT22;20809;49.594;8.734;2023-08-08T06:33:27;21.10;99.90
34574;DHT22;20809;49.594;8.734;2023-08-08T06:36:27;21.20;99.90
34574;DHT22;20809;49.594;8.734;2023-08-08T06:39:28;21.60;99.90
34574;DHT22;20809;49.594;8.734;2023-08-08T06:42:28;22.10;99.90
34574;DHT22;20809;49.594;8.734;2023-08-08T06:45:29;23.00;99.90
34574;DHT22;20809;49.594;8.734;2023-08-08T06:48:30;23.60;99.90
34574;DHT22;20809;49.594;8.734;2023-08-08T06:51:30;24.10;99.90
34574;DHT22;20809;49.594;8.734;2023-08-08T06:54:31;23.50;99.90
34574;DHT22;20809;49.594;8.734;2023-08-08T06:57:33;23.00;99.90
34574;DHT22;20809;49.594;8.734;2023-08-08T07:00:34;23.40;99.90
34574;DHT22;20809;49.594;8.734;2023-08-08T07:03:35;23.90;99.90
34574;DHT22;20809;49.594;8.734;2023-08-08T07:06:35;23.30;99.90
34574;DHT22;20809;49.594;8.734;2023-08-08T07:09:36;23.10;99.90
34574;DHT22;20809;49.594;8.734;2023-08-08T07:12:38;22.10;99.90
34574;DHT22;20809;49.594;8.734;2023-08-08T07:15:38;21.90;99.90
34574;DHT22;20809;49.594;8.734;2023-08-08T07:18:42;21.90;99.90
34574;DHT22;20809;49.594;8.734;2023-08-08T07:21:42;21.70;99.90
34574;DHT22;20809;49.594;8.734;2023-08-08T07:24:43;21.20;99.90
34574;DHT22;20809;49.594;8.734;2023-08-08T07:27:44;20.70;99.90
34574;DHT22;20809;49.594;8.734;2023-08-08T07:30:44;20.50;99.90
34574;DHT22;20809;49.594;8.734;2023-08-08T07:33:45;20.10;99.90
34574;DHT22;20809;49.594;8.734;2023-08-08T07:36:46;19.80;99.90
34574;DHT22;20809;49.594;8.734;2023-08-08T07:39:49;19.40;99.90
34574;DHT22;20809;49.594;8.734;2023-08-08T07:42:51;19.10;99.90
34574;DHT22;20809;49.594;8.734;2023-08-08T07:45:52;18.70;99.90
34574;DHT22;20809;49.594;8.734;2023-08-08T07:48:52;18.80;99.90
34574;DHT22;20809;49.594;8.734;2023-08-08T07:51:53;19.10;99.90
34574;DHT22;20809;49.594;8.734;2023-08-08T07:54:53;19.30;99.90
34574;DHT22;20809;49.594;8.734;2023-08-08T07:57:54;19.10;99.90
34574;DHT22;20809;49.594;8.734;2023-08-08T08:00:55;19.00;99.90
34574;DHT22;20809;49.594;8.734;2023-08-08T08:03:55;19.20;99.90
34574;DHT22;20809;49.594;8.734;2023-08-08T08:06:56;19.40;99.90
34574;DHT22;20809;49.594;8.734;2023-08-08T08:09:57;19.50;99.90
34574;DHT22;20809;49.594;8.734;2023-08-08T08:12:58;19.70;99.90
34574;DHT22;20809;49.594;8.734;2023-08-08T08:15:58;19.80;99.90
34574;DHT22;20809;49.594;8.734;2023-08-08T08:18:59;19.50;99.90
34574;DHT22;20809;49.594;8.734;2023-08-08T08:22:00;19.40;99.90
34574;DHT22;20809;49.594;8.734;2023-08-08T08:25:00;19.40;99.90
34574;DHT22;20809;49.594;8.734;2023-08-08T08:28:01;19.70;99.90
34574;DHT22;20809;49.594;8.734;2023-08-08T08:31:05;20.20;99.90
34574;DHT22;20809;49.594;8.734;2023-08-08T08:34:06;20.80;99.90
34574;DHT22;20809;49.594;8.734;2023-08-08T08:37:07;21.20;99.90
34574;DHT22;20809;49.594;8.734;2023-08-08T08:40:08;21.10;99.90
34574;DHT22;20809;49.594;8.734;2023-08-08T08:43:09;21.10;99.90
34574;DHT22;20809;49.594;8.734;2023-08-08T08:46:11;21.30;99.90
34574;DHT22;20809;49.594;8.734;2023-08-08T08:49:12;21.50;99.90
34574;DHT22;20809;49.594;8.734;2023-08-08T08:52:13;21.50;99.90
34574;DHT22;20809;49.594;8.734;2023-08-08T08:55:14;21.50;99.90
34574;DHT22;20809;49.594;8.734;2023-08-08T08:58:15;21.50;99.90
34574;DHT22;20809;49.594;8.734;2023-08-08T09:01:17;21.70;99.90
34574;DHT22;20809;49.594;8.734;2023-08-08T09:04:20;21.80;99.90
34574;DHT22;20809;49.594;8.734;2023-08-08T09:07:23;21.60;99.90
34574;DHT22;20809;49.594;8.734;2023-08-08T09:10:27;21.40;99.90
34574;DHT22;20809;49.594;8.734;2023-08-08T09:13:40;21.40;99.90
34574;DHT22;20809;49.594;8.734;2023-08-08T09:16:42;21.70;99.90
34574;DHT22;20809;49.594;8.734;2023-08-08T09:19:44;21.80;99.90
34574;DHT22;20809;49.594;8.734;2023-08-08T09:22:45;21.90;99.90
34574;DHT22;20809;49.594;8.734;2023-08-08T09:25:46;21.80;99.90
34574;DHT22;20809;49.594;8.734;2023-08-08T09:28:46;22.00;99.90
34574;DHT22;20809;49.594;8.734;2023-08-08T09:31:47;21.80;99.90
34574;DHT22;20809;49.594;8.734;2023-08-08T09:34:48;21.80;99.90
34574;DHT22;20809;49.594;8.734;2023-08-08T09:37:49;22.10;99.90
34574;DHT22;20809;49.594;8.734;2023-08-08T09:40:50;22.10;99.90
34574;DHT22;20809;49.594;8.734;2023-08-08T09:43:52;22.30;99.90
34574;DHT22;20809;49.594;8.734;2023-08-08T09:46:53;22.40;99.90
34574;DHT22;20809;49.594;8.734;2023-08-08T09:49:54;22.10;99.90
34574;DHT22;20809;49.594;8.734;2023-08-08T09:52:57;22.20;99.90
34574;DHT22;20809;49.594;8.734;2023-08-08T09:55:59;22.40;99.90
34574;DHT22;20809;49.594;8.734;2023-08-08T09:59:01;22.50;99.90
34574;DHT22;20809;49.594;8.734;2023-08-08T10:02:02;22.70;99.90
34574;DHT22;20809;49.594;8.734;2023-08-08T10:05:06;22.60;99.90
34574;DHT22;20809;49.594;8.734;2023-08-08T10:08:07;22.90;99.90
34574;DHT22;20809;49.594;8.734;2023-08-08T10:11:08;23.00;99.90
34574;DHT22;20809;49.594;8.734;2023-08-08T10:14:10;23.30;99.90
34574;DHT22;20809;49.594;8.734;2023-08-08T10:17:15;23.30;99.90
34574;DHT22;20809;49.594;8.734;2023-08-08T10:20:18;23.50;99.90
34574;DHT22;20809;49.594;8.734;2023-08-08T10:23:20;23.30;99.90
34574;DHT22;20809;49.594;8.734;2023-08-08T10:26:23;23.60;99.90
34574;DHT22;20809;49.594;8.734;2023-08-08T10:29:26;23.80;99.90
34574;DHT22;20809;49.594;8.734;2023-08-08T10:32:27;23.90;99.90
34574;DHT22;20809;49.594;8.734;2023-08-08T10:35:36;23.90;99.90
34574;DHT22;20809;49.594;8.734;2023-08-08T10:38:43;23.50;99.90
34574;DHT22;20809;49.594;8.734;2023-08-08T10:41:49;23.20;99.90
34574;DHT22;20809;49.594;8.734;2023-08-08T10:45:00;23.00;99.90
34574;DHT22;20809;49.594;8.734;2023-08-08T10:48:08;23.00;99.90
34574;DHT22;20809;49.594;8.734;2023-08-08T10:51:08;23.00;99.90
34574;DHT22;20809;49.594;8.734;2023-08-08T10:57:15;22.80;99.90
34574;DHT22;20809;49.594;8.734;2023-08-08T11:00:17;23.00;99.90
34574;DHT22;20809;49.594;8.734;2023-08-08T11:03:19;23.20;99.90
34574;DHT22;20809;49.594;8.734;2023-08-08T11:06:20;23.30;99.90
34574;DHT22;20809;49.594;8.734;2023-08-08T11:09:22;23.30;99.90
34574;DHT22;20809;49.594;8.734;2023-08-08T11:12:23;23.30;99.90
34574;DHT22;20809;49.594;8.734;2023-08-08T11:15:27;23.30;99.90
34574;DHT22;20809;49.594;8.734;2023-08-08T11:18:30;23.50;99.90
34574;DHT22;20809;49.594;8.734;2023-08-08T11:21:35;23.70;99.90
34574;DHT22;20809;49.594;8.734;2023-08-08T11:24:36;23.80;99.90
34574;DHT22;20809;49.594;8.734;2023-08-08T11:27:37;23.70;99.90
34574;DHT22;20809;49.594;8.734;2023-08-08T11:30:39;23.80;99.90
34574;DHT22;20809;49.594;8.734;2023-08-08T11:33:40;23.80;99.90
34574;DHT22;20809;49.594;8.734;2023-08-08T11:36:40;24.30;99.90
34574;DHT22;20809;49.594;8.734;2023-08-08T11:39:41;24.80;99.90
34574;DHT22;20809;49.594;8.734;2023-08-08T11:42:43;25.00;99.90
34574;DHT22;20809;49.594;8.734;2023-08-08T11:45:45;25.30;99.90
34574;DHT22;20809;49.594;8.734;2023-08-08T11:48:46;25.30;97.80
34574;DHT22;20809;49.594;8.734;2023-08-08T11:51:46;25.20;98.00
34574;DHT22;20809;49.594;8.734;2023-08-08T11:54:53;25.40;97.60
34574;DHT22;20809;49.594;8.734;2023-08-08T11:57:55;25.50;99.10
34574;DHT22;20809;49.594;8.734;2023-08-08T12:00:57;25.30;97.00
34574;DHT22;20809;49.594;8.734;2023-08-08T12:03:58;25.00;97.10
34574;DHT22;20809;49.594;8.734;2023-08-08T12:07:02;25.00;97.60
34574;DHT22;20809;49.594;8.734;2023-08-08T12:10:04;25.10;95.30
34574;DHT22;20809;49.594;8.734;2023-08-08T12:13:07;24.90;95.90
34574;DHT22;20809;49.594;8.734;2023-08-08T12:16:11;25.10;95.60
34574;DHT22;20809;49.594;8.734;2023-08-08T12:19:12;25.20;95.80
34574;DHT22;20809;49.594;8.734;2023-08-08T12:22:14;25.00;94.60
34574;DHT22;20809;49.594;8.734;2023-08-08T12:25:15;24.90;94.10
34574;DHT22;20809;49.594;8.734;2023-08-08T12:28:16;24.80;94.80
34574;DHT22;20809;49.594;8.734;2023-08-08T12:31:16;25.30;96.80
34574;DHT22;20809;49.594;8.734;2023-08-08T12:34:17;25.50;95.30
34574;DHT22;20809;49.594;8.734;2023-08-08T12:37:17;25.50;94.30
34574;DHT22;20809;49.594;8.734;2023-08-08T12:40:19;25.70;94.40
34574;DHT22;20809;49.594;8.734;2023-08-08T12:43:20;25.60;95.20
34574;DHT22;20809;49.594;8.734;2023-08-08T12:46:20;25.20;94.30
34574;DHT22;20809;49.594;8.734;2023-08-08T12:49:21;24.80;94.40
34574;DHT22;20809;49.594;8.734;2023-08-08T12:52:22;24.80;96.00
34574;DHT22;20809;49.594;8.734;2023-08-08T12:55:23;25.00;95.50
34574;DHT22;20809;49.594;8.734;2023-08-08T12:58:23;25.30;94.70
34574;DHT22;20809;49.594;8.734;2023-08-08T13:01:24;25.20;94.30
34574;DHT22;20809;49.594;8.734;2023-08-08T13:04:25;25.40;94.80
34574;DHT22;20809;49.594;8.734;2023-08-08T13:07:26;25.70;93.80
34574;DHT22;20809;49.594;8.734;2023-08-08T13:10:26;25.70;92.70
34574;DHT22;20809;49.594;8.734;2023-08-08T13:13:27;25.60;92.20
34574;DHT22;20809;49.594;8.734;2023-08-08T13:16:28;25.30;92.20
34574;DHT22;20809;49.594;8.734;2023-08-08T13:19:28;25.00;92.50
34574;DHT22;20809;49.594;8.734;2023-08-08T13:22:29;25.00;92.90
34574;DHT22;20809;49.594;8.734;2023-08-08T13:25:30;24.90;91.60
34574;DHT22;20809;49.594;8.734;2023-08-08T13:28:31;24.90;91.20
34574;DHT22;20809;49.594;8.734;2023-08-08T13:31:32;24.80;91.70
34574;DHT22;20809;49.594;8.734;2023-08-08T13:34:33;24.80;91.80
34574;DHT22;20809;49.594;8.734;2023-08-08T13:37:34;24.60;91.30
34574;DHT22;20809;49.594;8.734;2023-08-08T13:40:34;24.40;90.80
34574;DHT22;20809;49.594;8.734;2023-08-08T13:43:35;24.00;89.00
34574;DHT22;20809;49.594;8.734;2023-08-08T13:46:35;23.90;92.50
34574;DHT22;20809;49.594;8.734;2023-08-08T13:49:36;24.20;91.40
34574;DHT22;20809;49.594;8.734;2023-08-08T13:52:37;24.50;92.00
34574;DHT22;20809;49.594;8.734;2023-08-08T13:55:37;24.80;91.20
34574;DHT22;20809;49.594;8.734;2023-08-08T13:58:40;25.20;92.80
34574;DHT22;20809;49.594;8.734;2023-08-08T14:01:40;25.30;91.20
34574;DHT22;20809;49.594;8.734;2023-08-08T14:04:41;25.20;90.60
34574;DHT22;20809;49.594;8.734;2023-08-08T14:07:42;24.80;90.50
34574;DHT22;20809;49.594;8.734;2023-08-08T14:10:42;24.50;92.20
34574;DHT22;20809;49.594;8.734;2023-08-08T14:13:43;24.50;91.60
34574;DHT22;20809;49.594;8.734;2023-08-08T14:16:43;24.40;92.00
34574;DHT22;20809;49.594;8.734;2023-08-08T14:19:44;24.60;93.00
34574;DHT22;20809;49.594;8.734;2023-08-08T14:22:46;24.50;93.20
34574;DHT22;20809;49.594;8.734;2023-08-08T14:25:49;24.50;91.80
34574;DHT22;20809;49.594;8.734;2023-08-08T14:28:50;24.60;93.20
34574;DHT22;20809;49.594;8.734;2023-08-08T14:31:51;24.50;92.70
34574;DHT22;20809;49.594;8.734;2023-08-08T14:34:51;24.40;92.80
34574;DHT22;20809;49.594;8.734;2023-08-08T14:37:52;24.10;93.30
34574;DHT22;20809;49.594;8.734;2023-08-08T14:40:52;23.70;92.50
34574;DHT22;20809;49.594;8.734;2023-08-08T14:43:53;23.60;92.90
34574;DHT22;20809;49.594;8.734;2023-08-08T14:46:54;23.30;93.90
34574;DHT22;20809;49.594;8.734;2023-08-08T14:49:55;23.30;94.00
34574;DHT22;20809;49.594;8.734;2023-08-08T14:52:56;23.30;94.50
34574;DHT22;20809;49.594;8.734;2023-08-08T14:55:56;23.10;94.80
34574;DHT22;20809;49.594;8.734;2023-08-08T14:58:57;22.60;94.70
34574;DHT22;20809;49.594;8.734;2023-08-08T15:01:58;22.10;95.50
34574;DHT22;20809;49.594;8.734;2023-08-08T15:04:58;21.70;95.60
34574;DHT22;20809;49.594;8.734;2023-08-08T15:07:59;21.30;96.60
34574;DHT22;20809;49.594;8.734;2023-08-08T15:10:59;21.20;96.60
34574;DHT22;20809;49.594;8.734;2023-08-08T15:14:00;21.10;97.70
34574;DHT22;20809;49.594;8.734;2023-08-08T15:17:01;21.10;99.00
34574;DHT22;20809;49.594;8.734;2023-08-08T15:20:02;21.00;99.20
34574;DHT22;20809;49.594;8.734;2023-08-08T15:23:02;20.80;99.70
34574;DHT22;20809;49.594;8.734;2023-08-08T15:26:03;20.60;99.90
34574;DHT22;20809;49.594;8.734;2023-08-08T15:29:04;20.40;99.90
34574;DHT22;20809;49.594;8.734;2023-08-08T15:32:05;20.30;99.90
34574;DHT22;20809;49.594;8.734;2023-08-08T15:35:06;20.20;99.90
34574;DHT22;20809;49.594;8.734;2023-08-08T15:38:09;20.20;99.90
34574;DHT22;20809;49.594;8.734;2023-08-08T15:41:10;20.20;99.90
34574;DHT22;20809;49.594;8.734;2023-08-08T15:44:11;20.10;99.90
34574;DHT22;20809;49.594;8.734;2023-08-08T15:47:11;20.00;99.90
34574;DHT22;20809;49.594;8.734;2023-08-08T15:50:12;20.00;99.90
34574;DHT22;20809;49.594;8.734;2023-08-08T15:53:13;20.00;99.90
34574;DHT22;20809;49.594;8.734;2023-08-08T15:56:13;20.10;99.90
34574;DHT22;20809;49.594;8.734;2023-08-08T15:59:14;20.30;99.90
34574;DHT22;20809;49.594;8.734;2023-08-08T16:02:15;20.40;99.90
34574;DHT22;20809;49.594;8.734;2023-08-08T16:05:16;20.70;99.90
34574;DHT22;20809;49.594;8.734;2023-08-08T16:08:16;21.00;99.90
34574;DHT22;20809;49.594;8.734;2023-08-08T16:11:17;21.10;99.90
34574;DHT22;20809;49.594;8.734;2023-08-08T16:14:18;21.10;99.90
34574;DHT22;20809;49.594;8.734;2023-08-08T16:17:20;21.00;99.90
34574;DHT22;20809;49.594;8.734;2023-08-08T16:20:21;20.90;99.90
34574;DHT22;20809;49.594;8.734;2023-08-08T16:23:23;20.80;99.90
34574;DHT22;20809;49.594;8.734;2023-08-08T16:26:24;20.70;99.90
34574;DHT22;20809;49.594;8.734;2023-08-08T16:29:24;20.70;99.90
34574;DHT22;20809;49.594;8.734;2023-08-08T16:32:25;20.70;99.90
34574;DHT22;20809;49.594;8.734;2023-08-08T16:35:26;20.60;99.90
34574;DHT22;20809;49.594;8.734;2023-08-08T16:38:26;20.40;99.90
34574;DHT22;20809;49.594;8.734;2023-08-08T16:41:27;20.20;99.90
34574;DHT22;20809;49.594;8.734;2023-08-08T16:44:28;20.10;99.90
34574;DHT22;20809;49.594;8.734;2023-08-08T16:47:29;20.00;99.90
34574;DHT22;20809;49.594;8.734;2023-08-08T16:50:30;20.00;99.90
34574;DHT22;20809;49.594;8.734;2023-08-08T16:53:30;19.90;99.90
34574;DHT22;20809;49.594;8.734;2023-08-08T16:56:31;19.90;99.90
34574;DHT22;20809;49.594;8.734;2023-08-08T16:59:32;20.00;99.90
34574;DHT22;20809;49.594;8.734;2023-08-08T17:02:32;20.10;99.90
34574;DHT22;20809;49.594;8.734;2023-08-08T17:05:34;20.10;99.90
34574;DHT22;20809;49.594;8.734;2023-08-08T17:08:35;20.10;99.90
34574;DHT22;20809;49.594;8.734;2023-08-08T17:11:35;20.20;99.90
34574;DHT22;20809;49.594;8.734;2023-08-08T17:14:37;20.10;99.90
34574;DHT22;20809;49.594;8.734;2023-08-08T17:17:38;19.90;99.90
34574;DHT22;20809;49.594;8.734;2023-08-08T17:20:42;19.80;99.90
34574;DHT22;20809;49.594;8.734;2023-08-08T17:23:43;19.70;99.90
34574;DHT22;20809;49.594;8.734;2023-08-08T17:26:44;19.50;99.90
34574;DHT22;20809;49.594;8.734;2023-08-08T17:29:44;19.40;99.90
34574;DHT22;20809;49.594;8.734;2023-08-08T17:32:45;19.30;99.90
34574;DHT22;20809;49.594;8.734;2023-08-08T17:35:46;19.10;99.90
34574;DHT22;20809;49.594;8.734;2023-08-08T17:38:46;19.10;99.90
34574;DHT22;20809;49.594;8.734;2023-08-08T17:41:47;19.00;99.90
34574;DHT22;20809;49.594;8.734;2023-08-08T17:44:48;19.00;99.90
34574;DHT22;20809;49.594;8.734;2023-08-08T17:47:48;18.90;99.90
34574;DHT22;20809;49.594;8.734;2023-08-08T17:50:49;18.90;99.90
34574;DHT22;20809;49.594;8.734;2023-08-08T17:53:50;18.80;99.90
34574;DHT22;20809;49.594;8.734;2023-08-08T17:56:50;18.80;99.90
34574;DHT22;20809;49.594;8.734;2023-08-08T17:59:51;18.80;99.90
34574;DHT22;20809;49.594;8.734;2023-08-08T18:02:52;18.80;99.90
34574;DHT22;20809;49.594;8.734;2023-08-08T18:05:53;18.70;99.90
34574;DHT22;20809;49.594;8.734;2023-08-08T18:08:53;18.80;99.90
34574;DHT22;20809;49.594;8.734;2023-08-08T18:11:54;18.80;99.90
34574;DHT22;20809;49.594;8.734;2023-08-08T18:14:55;18.70;99.90
34574;DHT22;20809;49.594;8.734;2023-08-08T18:17:56;18.70;99.90
34574;DHT22;20809;49.594;8.734;2023-08-08T18:20:57;18.60;99.90
34574;DHT22;20809;49.594;8.734;2023-08-08T18:23:58;18.70;99.90
34574;DHT22;20809;49.594;8.734;2023-08-08T18:26:59;18.60;99.90
34574;DHT22;20809;49.594;8.734;2023-08-08T18:29:59;18.60;99.90
34574;DHT22;20809;49.594;8.734;2023-08-08T18:33:00;18.50;99.90
34574;DHT22;20809;49.594;8.734;2023-08-08T18:36:01;18.40;99.90
34574;DHT22;20809;49.594;8.734;2023-08-08T18:39:04;18.30;99.90
34574;DHT22;20809;49.594;8.734;2023-08-08T18:42:07;18.20;99.90
34574;DHT22;20809;49.594;8.734;2023-08-08T18:45:10;18.10;99.90
34574;DHT22;20809;49.594;8.734;2023-08-08T18:48:12;18.00;99.90
34574;DHT22;20809;49.594;8.734;2023-08-08T18:51:17;17.90;99.90
34574;DHT22;20809;49.594;8.734;2023-08-08T18:54:19;17.90;99.90
34574;DHT22;20809;49.594;8.734;2023-08-08T18:57:21;17.90;99.90
34574;DHT22;20809;49.594;8.734;2023-08-08T19:00:23;17.90;99.90
34574;DHT22;20809;49.594;8.734;2023-08-08T19:03:28;17.90;99.90
34574;DHT22;20809;49.594;8.734;2023-08-08T19:06:29;17.80;99.90
34574;DHT22;20809;49.594;8.734;2023-08-08T19:09:31;17.80;99.90
34574;DHT22;20809;49.594;8.734;2023-08-08T19:12:33;17.70;99.90
34574;DHT22;20809;49.594;8.734;2023-08-08T19:15:36;17.70;99.90